EDDG

Münster Osnabrück Airport

Airport
ICAO code
EDDG
IATA Code
FMO
Summary
ICAO Region
EUR
ICAO Territory
Location

, Nordrhein-Westfalen

Serving
Munster
Elevation
160 ft
Coordinates
52° 8' 5" N , 7° 41' 5" E
Metar
Observation
EDDG 031820Z AUTO 28011KT 9999 FEW029 07/03 Q1026 NOSIG
Station
Muenster / Osnabrueck
Date/Time
2023-02-03 18:20:00
Wind direction
280°
Wind speed
11 kts
Lowest cloud amount
few clouds
Temperature
7°C
Dew point
3°C
Humidity
75%
QNH
1026 hPa
Weather condition
n/a

Runways

Designator Length Width Surface Rops
7/25 2170 45 ASP Yes/Yes

Airport map

Aerial View

SKYbrary Partners:

Safety knowledge contributed by: